sensor_id;sensor_type;location;lat;lon;timestamp;temperature;humidity
25914;DHT22;13718;50.922;5.346;2022-09-09T00:02:04;16.70;99.90
25914;DHT22;13718;50.922;5.346;2022-09-09T00:04:38;16.70;99.90
25914;DHT22;13718;50.922;5.346;2022-09-09T00:07:34;16.70;99.90
25914;DHT22;13718;50.922;5.346;2022-09-09T00:15:18;16.60;99.90
25914;DHT22;13718;50.922;5.346;2022-09-09T00:20:36;16.50;99.90
25914;DHT22;13718;50.922;5.346;2022-09-09T00:23:14;16.30;99.90
25914;DHT22;13718;50.922;5.346;2022-09-09T00:28:23;16.20;99.90
25914;DHT22;13718;50.922;5.346;2022-09-09T00:30:50;16.20;99.90
25914;DHT22;13718;50.922;5.346;2022-09-09T00:33:19;16.10;99.90
25914;DHT22;13718;50.922;5.346;2022-09-09T00:35:58;16.10;99.90
25914;DHT22;13718;50.922;5.346;2022-09-09T00:38:37;16.00;99.90
25914;DHT22;13718;50.922;5.346;2022-09-09T00:41:14;15.90;99.90
25914;DHT22;13718;50.922;5.346;2022-09-09T00:43:51;15.90;99.90
25914;DHT22;13718;50.922;5.346;2022-09-09T00:46:56;15.80;99.90
25914;DHT22;13718;50.922;5.346;2022-09-09T00:52:11;15.70;99.90
25914;DHT22;13718;50.922;5.346;2022-09-09T00:57:36;15.60;99.90
25914;DHT22;13718;50.922;5.346;2022-09-09T01:06:12;15.60;99.90
25914;DHT22;13718;50.922;5.346;2022-09-09T01:11:28;15.60;99.90
25914;DHT22;13718;50.922;5.346;2022-09-09T01:16:44;15.70;99.90
25914;DHT22;13718;50.922;5.346;2022-09-09T01:19:18;15.70;99.90
25914;DHT22;13718;50.922;5.346;2022-09-09T01:22:01;15.90;99.90
25914;DHT22;13718;50.922;5.346;2022-09-09T01:27:23;16.00;99.90
25914;DHT22;13718;50.922;5.346;2022-09-09T01:29:48;16.00;99.90
25914;DHT22;13718;50.922;5.346;2022-09-09T01:32:43;16.00;99.90
25914;DHT22;13718;50.922;5.346;2022-09-09T01:35:18;16.10;99.90
25914;DHT22;13718;50.922;5.346;2022-09-09T01:37:46;16.10;99.90
25914;DHT22;13718;50.922;5.346;2022-09-09T01:40:12;16.10;99.90
25914;DHT22;13718;50.922;5.346;2022-09-09T01:42:38;16.10;99.90
25914;DHT22;13718;50.922;5.346;2022-09-09T01:45:04;16.20;99.90
25914;DHT22;13718;50.922;5.346;2022-09-09T01:47:30;16.20;99.90
25914;DHT22;13718;50.922;5.346;2022-09-09T01:49:55;16.30;99.90
25914;DHT22;13718;50.922;5.346;2022-09-09T01:52:21;16.30;99.90
25914;DHT22;13718;50.922;5.346;2022-09-09T01:54:47;16.30;99.90
25914;DHT22;13718;50.922;5.346;2022-09-09T02:11:08;16.50;99.90
25914;DHT22;13718;50.922;5.346;2022-09-09T02:13:38;16.50;99.90
25914;DHT22;13718;50.922;5.346;2022-09-09T02:16:10;16.60;99.90
25914;DHT22;13718;50.922;5.346;2022-09-09T02:21:03;16.60;99.90
25914;DHT22;13718;50.922;5.346;2022-09-09T02:23:32;16.60;99.90
25914;DHT22;13718;50.922;5.346;2022-09-09T02:25:59;16.70;99.90
25914;DHT22;13718;50.922;5.346;2022-09-09T02:28:28;16.60;99.90
25914;DHT22;13718;50.922;5.346;2022-09-09T02:30:55;16.60;99.90
25914;DHT22;13718;50.922;5.346;2022-09-09T02:33:25;16.50;99.90
25914;DHT22;13718;50.922;5.346;2022-09-09T02:35:53;16.70;99.90
25914;DHT22;13718;50.922;5.346;2022-09-09T02:38:20;16.70;99.90
25914;DHT22;13718;50.922;5.346;2022-09-09T02:40:47;16.70;99.90
25914;DHT22;13718;50.922;5.346;2022-09-09T02:43:14;16.70;99.90
25914;DHT22;13718;50.922;5.346;2022-09-09T02:45:53;16.70;99.90
25914;DHT22;13718;50.922;5.346;2022-09-09T02:48:51;16.70;99.90
25914;DHT22;13718;50.922;5.346;2022-09-09T02:51:24;16.80;99.90
25914;DHT22;13718;50.922;5.346;2022-09-09T02:56:25;16.80;99.90
25914;DHT22;13718;50.922;5.346;2022-09-09T02:58:51;16.80;99.90
25914;DHT22;13718;50.922;5.346;2022-09-09T03:01:17;16.80;99.90
25914;DHT22;13718;50.922;5.346;2022-09-09T03:03:42;16.70;99.90
25914;DHT22;13718;50.922;5.346;2022-09-09T03:06:09;16.70;99.90
25914;DHT22;13718;50.922;5.346;2022-09-09T03:08:37;16.70;99.90
25914;DHT22;13718;50.922;5.346;2022-09-09T03:11:03;16.70;99.90
25914;DHT22;13718;50.922;5.346;2022-09-09T03:13:29;16.70;99.90
25914;DHT22;13718;50.922;5.346;2022-09-09T03:15:55;16.60;99.90
25914;DHT22;13718;50.922;5.346;2022-09-09T03:18:20;16.60;99.90
25914;DHT22;13718;50.922;5.346;2022-09-09T03:20:46;16.60;99.90
25914;DHT22;13718;50.922;5.346;2022-09-09T03:23:16;16.60;99.90
25914;DHT22;13718;50.922;5.346;2022-09-09T03:25:51;16.80;99.90
25914;DHT22;13718;50.922;5.346;2022-09-09T03:28:18;16.90;99.90
25914;DHT22;13718;50.922;5.346;2022-09-09T03:30:43;16.90;99.90
25914;DHT22;13718;50.922;5.346;2022-09-09T03:33:09;17.00;99.90
25914;DHT22;13718;50.922;5.346;2022-09-09T03:35:35;17.00;99.90
25914;DHT22;13718;50.922;5.346;2022-09-09T03:38:00;17.10;99.90
25914;DHT22;13718;50.922;5.346;2022-09-09T03:40:26;17.10;99.90
25914;DHT22;13718;50.922;5.346;2022-09-09T03:42:52;17.20;99.90
25914;DHT22;13718;50.922;5.346;2022-09-09T03:45:17;17.20;99.90
25914;DHT22;13718;50.922;5.346;2022-09-09T03:47:43;17.20;99.90
25914;DHT22;13718;50.922;5.346;2022-09-09T03:50:09;17.10;99.90
25914;DHT22;13718;50.922;5.346;2022-09-09T03:52:40;17.10;99.90
25914;DHT22;13718;50.922;5.346;2022-09-09T03:55:06;17.30;99.90
25914;DHT22;13718;50.922;5.346;2022-09-09T03:57:33;17.40;99.90
25914;DHT22;13718;50.922;5.346;2022-09-09T04:00:02;17.40;99.90
25914;DHT22;13718;50.922;5.346;2022-09-09T04:02:28;17.30;99.90
25914;DHT22;13718;50.922;5.346;2022-09-09T04:04:54;17.40;99.90
25914;DHT22;13718;50.922;5.346;2022-09-09T04:07:19;17.40;99.90
25914;DHT22;13718;50.922;5.346;2022-09-09T04:09:45;17.30;99.90
25914;DHT22;13718;50.922;5.346;2022-09-09T04:12:11;17.40;99.90
25914;DHT22;13718;50.922;5.346;2022-09-09T04:14:38;17.30;99.90
25914;DHT22;13718;50.922;5.346;2022-09-09T04:17:04;17.20;99.90
25914;DHT22;13718;50.922;5.346;2022-09-09T04:19:32;17.00;99.90
25914;DHT22;13718;50.922;5.346;2022-09-09T04:21:57;17.00;99.90
25914;DHT22;13718;50.922;5.346;2022-09-09T04:24:23;17.10;99.90
25914;DHT22;13718;50.922;5.346;2022-09-09T04:26:50;17.00;99.90
25914;DHT22;13718;50.922;5.346;2022-09-09T04:29:15;17.00;99.90
25914;DHT22;13718;50.922;5.346;2022-09-09T04:31:41;17.10;99.90
25914;DHT22;13718;50.922;5.346;2022-09-09T04:34:10;17.00;99.90
25914;DHT22;13718;50.922;5.346;2022-09-09T04:36:36;17.00;99.90
25914;DHT22;13718;50.922;5.346;2022-09-09T04:39:02;17.10;99.90
25914;DHT22;13718;50.922;5.346;2022-09-09T04:41:28;17.10;99.90
25914;DHT22;13718;50.922;5.346;2022-09-09T04:43:54;17.10;99.90
25914;DHT22;13718;50.922;5.346;2022-09-09T04:46:20;17.10;99.90
25914;DHT22;13718;50.922;5.346;2022-09-09T04:48:48;17.20;99.90
25914;DHT22;13718;50.922;5.346;2022-09-09T04:51:15;17.10;99.90
25914;DHT22;13718;50.922;5.346;2022-09-09T04:53:40;17.10;99.90
25914;DHT22;13718;50.922;5.346;2022-09-09T04:56:11;17.00;99.90
25914;DHT22;13718;50.922;5.346;2022-09-09T04:58:38;17.10;99.90
25914;DHT22;13718;50.922;5.346;2022-09-09T05:01:15;17.00;99.90
25914;DHT22;13718;50.922;5.346;2022-09-09T05:03:42;17.00;99.90
25914;DHT22;13718;50.922;5.346;2022-09-09T05:06:12;17.00;99.90
25914;DHT22;13718;50.922;5.346;2022-09-09T05:08:39;16.80;99.90
25914;DHT22;13718;50.922;5.346;2022-09-09T05:11:28;16.90;99.90
25914;DHT22;13718;50.922;5.346;2022-09-09T05:13:54;17.00;99.90
25914;DHT22;13718;50.922;5.346;2022-09-09T05:16:21;17.00;99.90
25914;DHT22;13718;50.922;5.346;2022-09-09T05:18:48;17.10;99.90
25914;DHT22;13718;50.922;5.346;2022-09-09T05:21:16;17.20;99.90
25914;DHT22;13718;50.922;5.346;2022-09-09T05:23:42;17.10;99.90
25914;DHT22;13718;50.922;5.346;2022-09-09T05:26:13;17.20;99.90
25914;DHT22;13718;50.922;5.346;2022-09-09T05:28:39;17.10;99.90
25914;DHT22;13718;50.922;5.346;2022-09-09T05:31:06;17.10;99.90
25914;DHT22;13718;50.922;5.346;2022-09-09T05:33:34;17.00;99.90
25914;DHT22;13718;50.922;5.346;2022-09-09T05:36:05;17.10;99.90
25914;DHT22;13718;50.922;5.346;2022-09-09T05:38:32;17.10;99.90
25914;DHT22;13718;50.922;5.346;2022-09-09T05:40:58;17.20;99.90
25914;DHT22;13718;50.922;5.346;2022-09-09T05:43:25;17.20;99.90
25914;DHT22;13718;50.922;5.346;2022-09-09T05:46:11;17.30;99.90
25914;DHT22;13718;50.922;5.346;2022-09-09T05:48:39;17.40;99.90
25914;DHT22;13718;50.922;5.346;2022-09-09T05:51:06;17.30;99.90
25914;DHT22;13718;50.922;5.346;2022-09-09T05:53:32;17.30;99.90
25914;DHT22;13718;50.922;5.346;2022-09-09T05:58:31;17.50;99.90
25914;DHT22;13718;50.922;5.346;2022-09-09T06:01:15;17.60;99.90
25914;DHT22;13718;50.922;5.346;2022-09-09T06:03:42;17.70;99.90
25914;DHT22;13718;50.922;5.346;2022-09-09T06:06:11;17.70;99.90
25914;DHT22;13718;50.922;5.346;2022-09-09T06:08:39;17.70;99.90
25914;DHT22;13718;50.922;5.346;2022-09-09T06:11:19;17.80;99.90
25914;DHT22;13718;50.922;5.346;2022-09-09T06:13:45;18.00;99.90
25914;DHT22;13718;50.922;5.346;2022-09-09T06:16:13;18.00;99.90
25914;DHT22;13718;50.922;5.346;2022-09-09T06:18:40;18.00;99.90
25914;DHT22;13718;50.922;5.346;2022-09-09T06:21:16;18.20;99.90
25914;DHT22;13718;50.922;5.346;2022-09-09T06:23:42;18.10;99.90
25914;DHT22;13718;50.922;5.346;2022-09-09T06:26:11;18.10;99.90
25914;DHT22;13718;50.922;5.346;2022-09-09T06:28:38;18.20;99.90
25914;DHT22;13718;50.922;5.346;2022-09-09T06:31:07;18.20;99.90
25914;DHT22;13718;50.922;5.346;2022-09-09T06:33:37;18.30;99.90
25914;DHT22;13718;50.922;5.346;2022-09-09T06:36:05;18.30;99.90
25914;DHT22;13718;50.922;5.346;2022-09-09T06:38:31;18.50;99.90
25914;DHT22;13718;50.922;5.346;2022-09-09T06:40:59;18.70;99.90
25914;DHT22;13718;50.922;5.346;2022-09-09T06:43:28;18.80;99.90
25914;DHT22;13718;50.922;5.346;2022-09-09T06:45:55;18.90;99.90
25914;DHT22;13718;50.922;5.346;2022-09-09T06:48:21;18.90;99.90
25914;DHT22;13718;50.922;5.346;2022-09-09T06:50:47;18.90;99.90
25914;DHT22;13718;50.922;5.346;2022-09-09T06:53:17;18.90;99.90
25914;DHT22;13718;50.922;5.346;2022-09-09T06:55:45;18.90;99.90
25914;DHT22;13718;50.922;5.346;2022-09-09T06:58:10;19.10;99.90
25914;DHT22;13718;50.922;5.346;2022-09-09T07:00:36;19.30;99.90
25914;DHT22;13718;50.922;5.346;2022-09-09T07:03:05;19.40;99.90
25914;DHT22;13718;50.922;5.346;2022-09-09T07:05:31;19.40;99.90
25914;DHT22;13718;50.922;5.346;2022-09-09T07:07:57;19.50;99.90
25914;DHT22;13718;50.922;5.346;2022-09-09T07:10:23;19.50;99.90
25914;DHT22;13718;50.922;5.346;2022-09-09T07:12:52;19.50;99.90
25914;DHT22;13718;50.922;5.346;2022-09-09T07:15:20;19.60;99.90
25914;DHT22;13718;50.922;5.346;2022-09-09T07:17:48;19.50;99.90
25914;DHT22;13718;50.922;5.346;2022-09-09T07:20:14;19.50;99.90
25914;DHT22;13718;50.922;5.346;2022-09-09T07:22:40;19.40;99.90
25914;DHT22;13718;50.922;5.346;2022-09-09T07:25:07;19.30;99.90
25914;DHT22;13718;50.922;5.346;2022-09-09T07:27:33;19.40;99.90
25914;DHT22;13718;50.922;5.346;2022-09-09T07:29:58;19.60;99.90
25914;DHT22;13718;50.922;5.346;2022-09-09T07:32:24;19.60;99.90
25914;DHT22;13718;50.922;5.346;2022-09-09T07:34:51;20.00;99.90
25914;DHT22;13718;50.922;5.346;2022-09-09T07:37:17;20.20;99.90
25914;DHT22;13718;50.922;5.346;2022-09-09T07:39:43;20.20;99.90
25914;DHT22;13718;50.922;5.346;2022-09-09T07:42:09;20.00;99.90
25914;DHT22;13718;50.922;5.346;2022-09-09T07:44:37;20.30;99.90
25914;DHT22;13718;50.922;5.346;2022-09-09T07:47:05;20.50;99.90
25914;DHT22;13718;50.922;5.346;2022-09-09T07:49:31;20.70;99.90
25914;DHT22;13718;50.922;5.346;2022-09-09T07:51:57;20.80;99.90
25914;DHT22;13718;50.922;5.346;2022-09-09T07:54:24;20.90;99.90
25914;DHT22;13718;50.922;5.346;2022-09-09T07:56:51;20.90;99.90
25914;DHT22;13718;50.922;5.346;2022-09-09T07:59:17;20.90;99.90
25914;DHT22;13718;50.922;5.346;2022-09-09T08:01:45;20.80;99.90
25914;DHT22;13718;50.922;5.346;2022-09-09T08:04:16;20.60;99.90
25914;DHT22;13718;50.922;5.346;2022-09-09T08:06:45;20.50;99.90
25914;DHT22;13718;50.922;5.346;2022-09-09T08:09:12;20.50;99.90
25914;DHT22;13718;50.922;5.346;2022-09-09T08:11:39;20.50;99.90
25914;DHT22;13718;50.922;5.346;2022-09-09T08:14:08;20.50;99.90
25914;DHT22;13718;50.922;5.346;2022-09-09T08:16:36;20.50;99.90
25914;DHT22;13718;50.922;5.346;2022-09-09T08:19:03;20.40;99.90
25914;DHT22;13718;50.922;5.346;2022-09-09T08:21:30;20.20;99.90
25914;DHT22;13718;50.922;5.346;2022-09-09T08:23:58;20.20;99.90
25914;DHT22;13718;50.922;5.346;2022-09-09T08:26:27;20.00;99.90
25914;DHT22;13718;50.922;5.346;2022-09-09T08:28:55;20.00;99.90
25914;DHT22;13718;50.922;5.346;2022-09-09T08:31:29;19.90;99.90
25914;DHT22;13718;50.922;5.346;2022-09-09T08:33:56;19.80;99.90
25914;DHT22;13718;50.922;5.346;2022-09-09T08:36:25;19.70;99.90
25914;DHT22;13718;50.922;5.346;2022-09-09T08:38:52;19.60;99.90
25914;DHT22;13718;50.922;5.346;2022-09-09T08:46:54;19.70;99.90
25914;DHT22;13718;50.922;5.346;2022-09-09T08:52:30;19.70;99.90
25914;DHT22;13718;50.922;5.346;2022-09-09T08:55:37;19.60;99.90
25914;DHT22;13718;50.922;5.346;2022-09-09T09:01:20;19.40;99.90
25914;DHT22;13718;50.922;5.346;2022-09-09T09:11:55;19.30;99.90
25914;DHT22;13718;50.922;5.346;2022-09-09T09:14:30;19.40;99.90
25914;DHT22;13718;50.922;5.346;2022-09-09T09:17:02;19.50;99.90
25914;DHT22;13718;50.922;5.346;2022-09-09T09:19:33;19.60;99.90
25914;DHT22;13718;50.922;5.346;2022-09-09T09:22:22;19.70;99.90
25914;DHT22;13718;50.922;5.346;2022-09-09T09:25:13;19.80;99.90
25914;DHT22;13718;50.922;5.346;2022-09-09T09:27:40;19.90;99.90
25914;DHT22;13718;50.922;5.346;2022-09-09T09:30:18;19.90;99.90
25914;DHT22;13718;50.922;5.346;2022-09-09T09:32:55;20.00;99.90
25914;DHT22;13718;50.922;5.346;2022-09-09T09:35:21;19.90;99.90
25914;DHT22;13718;50.922;5.346;2022-09-09T09:37:47;19.80;99.90
25914;DHT22;13718;50.922;5.346;2022-09-09T09:40:22;19.90;99.90
25914;DHT22;13718;50.922;5.346;2022-09-09T09:42:59;20.00;99.90
25914;DHT22;13718;50.922;5.346;2022-09-09T09:46:01;20.20;99.90
25914;DHT22;13718;50.922;5.346;2022-09-09T09:48:20;20.40;99.90
25914;DHT22;13718;50.922;5.346;2022-09-09T09:51:05;20.50;99.90
25914;DHT22;13718;50.922;5.346;2022-09-09T09:53:34;20.70;99.90
25914;DHT22;13718;50.922;5.346;2022-09-09T09:56:06;20.80;99.90
25914;DHT22;13718;50.922;5.346;2022-09-09T10:01:04;20.80;99.90
25914;DHT22;13718;50.922;5.346;2022-09-09T10:03:35;20.70;99.90
25914;DHT22;13718;50.922;5.346;2022-09-09T10:06:06;20.60;99.90
25914;DHT22;13718;50.922;5.346;2022-09-09T10:08:34;20.50;99.90
25914;DHT22;13718;50.922;5.346;2022-09-09T10:11:28;20.40;99.90
25914;DHT22;13718;50.922;5.346;2022-09-09T10:14:21;20.30;99.90
25914;DHT22;13718;50.922;5.346;2022-09-09T10:19:36;20.30;99.90
25914;DHT22;13718;50.922;5.346;2022-09-09T10:22:15;20.10;99.90
25914;DHT22;13718;50.922;5.346;2022-09-09T10:30:21;19.30;99.90
25914;DHT22;13718;50.922;5.346;2022-09-09T10:32:53;19.10;99.90
25914;DHT22;13718;50.922;5.346;2022-09-09T10:37:53;18.70;99.90
25914;DHT22;13718;50.922;5.346;2022-09-09T10:43:42;18.40;99.90
25914;DHT22;13718;50.922;5.346;2022-09-09T10:50:58;18.00;99.90
25914;DHT22;13718;50.922;5.346;2022-09-09T10:56:10;18.00;99.90
25914;DHT22;13718;50.922;5.346;2022-09-09T11:01:46;18.20;99.90
25914;DHT22;13718;50.922;5.346;2022-09-09T11:04:16;18.30;99.90
25914;DHT22;13718;50.922;5.346;2022-09-09T11:06:49;18.40;99.90
25914;DHT22;13718;50.922;5.346;2022-09-09T11:09:21;18.40;99.90
25914;DHT22;13718;50.922;5.346;2022-09-09T11:11:53;18.40;99.90
25914;DHT22;13718;50.922;5.346;2022-09-09T11:14:45;18.40;99.90
25914;DHT22;13718;50.922;5.346;2022-09-09T11:17:21;18.40;99.90
25914;DHT22;13718;50.922;5.346;2022-09-09T11:19:47;18.60;99.90
25914;DHT22;13718;50.922;5.346;2022-09-09T11:22:32;18.60;99.90
25914;DHT22;13718;50.922;5.346;2022-09-09T11:25:17;18.60;99.90
25914;DHT22;13718;50.922;5.346;2022-09-09T11:28:20;18.80;99.90
25914;DHT22;13718;50.922;5.346;2022-09-09T11:31:07;19.00;99.90
25914;DHT22;13718;50.922;5.346;2022-09-09T11:36:22;19.10;99.90
25914;DHT22;13718;50.922;5.346;2022-09-09T11:38:52;19.20;99.90
25914;DHT22;13718;50.922;5.346;2022-09-09T11:41:22;19.20;99.90
25914;DHT22;13718;50.922;5.346;2022-09-09T11:43:51;19.30;99.90
25914;DHT22;13718;50.922;5.346;2022-09-09T11:46:20;19.10;99.90
25914;DHT22;13718;50.922;5.346;2022-09-09T11:48:58;19.10;99.90
25914;DHT22;13718;50.922;5.346;2022-09-09T11:51:27;19.10;99.90
25914;DHT22;13718;50.922;5.346;2022-09-09T11:53:54;19.20;99.90
25914;DHT22;13718;50.922;5.346;2022-09-09T12:09:56;18.80;99.90
25914;DHT22;13718;50.922;5.346;2022-09-09T12:12:35;18.80;99.90
25914;DHT22;13718;50.922;5.346;2022-09-09T12:15:18;18.70;99.90
25914;DHT22;13718;50.922;5.346;2022-09-09T12:17:48;18.50;99.90
25914;DHT22;13718;50.922;5.346;2022-09-09T12:20:23;18.40;99.90
25914;DHT22;13718;50.922;5.346;2022-09-09T12:26:03;18.30;99.90
25914;DHT22;13718;50.922;5.346;2022-09-09T12:31:25;18.10;99.90
25914;DHT22;13718;50.922;5.346;2022-09-09T12:33:53;18.00;99.90
25914;DHT22;13718;50.922;5.346;2022-09-09T12:36:24;17.80;99.90
25914;DHT22;13718;50.922;5.346;2022-09-09T12:38:54;17.80;99.90
25914;DHT22;13718;50.922;5.346;2022-09-09T12:41:24;18.00;99.90
25914;DHT22;13718;50.922;5.346;2022-09-09T12:43:51;18.20;99.90
25914;DHT22;13718;50.922;5.346;2022-09-09T12:46:36;18.30;99.90
25914;DHT22;13718;50.922;5.346;2022-09-09T12:49:03;18.40;99.90
25914;DHT22;13718;50.922;5.346;2022-09-09T12:51:30;18.60;99.90
25914;DHT22;13718;50.922;5.346;2022-09-09T12:53:56;18.70;99.90
25914;DHT22;13718;50.922;5.346;2022-09-09T12:56:28;19.00;99.90
25914;DHT22;13718;50.922;5.346;2022-09-09T12:58:56;19.10;99.90
25914;DHT22;13718;50.922;5.346;2022-09-09T13:03:52;19.30;99.90
25914;DHT22;13718;50.922;5.346;2022-09-09T13:06:29;19.60;99.90
25914;DHT22;13718;50.922;5.346;2022-09-09T13:08:57;19.60;99.90
25914;DHT22;13718;50.922;5.346;2022-09-09T13:11:39;19.80;99.90
25914;DHT22;13718;50.922;5.346;2022-09-09T13:14:23;19.80;99.90
25914;DHT22;13718;50.922;5.346;2022-09-09T13:17:17;19.90;99.90
25914;DHT22;13718;50.922;5.346;2022-09-09T13:19:44;19.80;99.90
25914;DHT22;13718;50.922;5.346;2022-09-09T13:22:36;20.00;99.90
25914;DHT22;13718;50.922;5.346;2022-09-09T13:30:38;20.70;99.90
25914;DHT22;13718;50.922;5.346;2022-09-09T13:35:44;21.30;99.90
25914;DHT22;13718;50.922;5.346;2022-09-09T13:38:14;21.50;99.90
25914;DHT22;13718;50.922;5.346;2022-09-09T13:40:40;21.50;99.90
25914;DHT22;13718;50.922;5.346;2022-09-09T13:43:21;21.60;99.90
25914;DHT22;13718;50.922;5.346;2022-09-09T13:45:56;21.80;99.90
25914;DHT22;13718;50.922;5.346;2022-09-09T13:48:22;22.00;99.90
25914;DHT22;13718;50.922;5.346;2022-09-09T13:51:03;22.20;99.90
25914;DHT22;13718;50.922;5.346;2022-09-09T13:53:31;22.50;99.90
25914;DHT22;13718;50.922;5.346;2022-09-09T13:55:57;22.60;99.90
25914;DHT22;13718;50.922;5.346;2022-09-09T13:58:23;22.70;99.90
25914;DHT22;13718;50.922;5.346;2022-09-09T14:00:51;22.90;99.90
25914;DHT22;13718;50.922;5.346;2022-09-09T14:03:17;22.70;99.90
25914;DHT22;13718;50.922;5.346;2022-09-09T14:05:44;22.60;99.90
25914;DHT22;13718;50.922;5.346;2022-09-09T14:08:16;22.30;99.90
25914;DHT22;13718;50.922;5.346;2022-09-09T14:10:44;22.20;99.90
25914;DHT22;13718;50.922;5.346;2022-09-09T14:13:09;22.00;99.90
25914;DHT22;13718;50.922;5.346;2022-09-09T14:15:35;22.00;99.90
25914;DHT22;13718;50.922;5.346;2022-09-09T14:18:01;22.00;99.90
25914;DHT22;13718;50.922;5.346;2022-09-09T14:20:27;22.20;99.90
25914;DHT22;13718;50.922;5.346;2022-09-09T14:22:53;22.40;99.90
25914;DHT22;13718;50.922;5.346;2022-09-09T14:25:18;22.60;99.90
25914;DHT22;13718;50.922;5.346;2022-09-09T14:27:44;22.80;99.90
25914;DHT22;13718;50.922;5.346;2022-09-09T14:30:13;22.90;99.90
25914;DHT22;13718;50.922;5.346;2022-09-09T14:32:38;23.00;99.90
25914;DHT22;13718;50.922;5.346;2022-09-09T14:35:04;22.80;99.90
25914;DHT22;13718;50.922;5.346;2022-09-09T14:37:30;22.60;99.90
25914;DHT22;13718;50.922;5.346;2022-09-09T14:39:56;22.40;99.90
25914;DHT22;13718;50.922;5.346;2022-09-09T14:42:22;22.40;99.90
25914;DHT22;13718;50.922;5.346;2022-09-09T14:44:48;22.40;99.90
25914;DHT22;13718;50.922;5.346;2022-09-09T14:47:14;22.30;99.90
25914;DHT22;13718;50.922;5.346;2022-09-09T14:49:40;22.30;99.90
25914;DHT22;13718;50.922;5.346;2022-09-09T14:52:05;22.20;99.90
25914;DHT22;13718;50.922;5.346;2022-09-09T14:54:31;22.10;99.90
25914;DHT22;13718;50.922;5.346;2022-09-09T14:56:57;22.10;99.90
25914;DHT22;13718;50.922;5.346;2022-09-09T14:59:23;22.20;99.90
25914;DHT22;13718;50.922;5.346;2022-09-09T15:01:49;22.40;99.90
25914;DHT22;13718;50.922;5.346;2022-09-09T15:04:14;22.60;99.90
25914;DHT22;13718;50.922;5.346;2022-09-09T15:06:42;22.60;99.90
25914;DHT22;13718;50.922;5.346;2022-09-09T15:09:09;22.60;99.90
25914;DHT22;13718;50.922;5.346;2022-09-09T15:11:36;22.40;99.90
25914;DHT22;13718;50.922;5.346;2022-09-09T15:14:07;22.30;99.90
25914;DHT22;13718;50.922;5.346;2022-09-09T15:16:33;22.30;99.90
25914;DHT22;13718;50.922;5.346;2022-09-09T15:19:00;22.40;99.90
25914;DHT22;13718;50.922;5.346;2022-09-09T15:21:28;22.50;99.90
25914;DHT22;13718;50.922;5.346;2022-09-09T15:23:55;22.40;99.90
25914;DHT22;13718;50.922;5.346;2022-09-09T15:26:21;22.20;99.90
25914;DHT22;13718;50.922;5.346;2022-09-09T15:28:47;22.20;99.90
25914;DHT22;13718;50.922;5.346;2022-09-09T15:31:29;22.20;99.90
25914;DHT22;13718;50.922;5.346;2022-09-09T15:33:58;22.30;99.90
25914;DHT22;13718;50.922;5.346;2022-09-09T15:36:31;22.30;99.90
25914;DHT22;13718;50.922;5.346;2022-09-09T15:38:58;22.20;99.90
25914;DHT22;13718;50.922;5.346;2022-09-09T15:41:25;22.30;99.90
25914;DHT22;13718;50.922;5.346;2022-09-09T15:43:55;22.10;99.90
25914;DHT22;13718;50.922;5.346;2022-09-09T15:46:36;22.20;99.90
25914;DHT22;13718;50.922;5.346;2022-09-09T15:49:19;22.30;99.90
25914;DHT22;13718;50.922;5.346;2022-09-09T15:51:47;22.30;99.90
25914;DHT22;13718;50.922;5.346;2022-09-09T15:54:15;22.40;99.90
25914;DHT22;13718;50.922;5.346;2022-09-09T15:56:45;22.50;99.90
25914;DHT22;13718;50.922;5.346;2022-09-09T15:59:12;22.60;99.90
25914;DHT22;13718;50.922;5.346;2022-09-09T16:01:38;22.60;99.90
25914;DHT22;13718;50.922;5.346;2022-09-09T16:04:05;22.60;99.90
25914;DHT22;13718;50.922;5.346;2022-09-09T16:06:32;22.50;99.90
25914;DHT22;13718;50.922;5.346;2022-09-09T16:08:59;22.20;99.90
25914;DHT22;13718;50.922;5.346;2022-09-09T16:11:31;22.10;99.90
25914;DHT22;13718;50.922;5.346;2022-09-09T16:13:58;21.90;99.90
25914;DHT22;13718;50.922;5.346;2022-09-09T16:16:26;21.90;99.90
25914;DHT22;13718;50.922;5.346;2022-09-09T16:18:57;21.90;99.90
25914;DHT22;13718;50.922;5.346;2022-09-09T16:21:31;22.10;99.90
25914;DHT22;13718;50.922;5.346;2022-09-09T16:23:59;22.20;99.90
25914;DHT22;13718;50.922;5.346;2022-09-09T16:26:25;22.10;99.90
25914;DHT22;13718;50.922;5.346;2022-09-09T16:28:52;22.00;99.90
25914;DHT22;13718;50.922;5.346;2022-09-09T16:31:21;21.80;99.90
25914;DHT22;13718;50.922;5.346;2022-09-09T16:33:48;21.50;99.90
25914;DHT22;13718;50.922;5.346;2022-09-09T16:36:17;21.30;99.90
25914;DHT22;13718;50.922;5.346;2022-09-09T16:38:43;21.10;99.90
25914;DHT22;13718;50.922;5.346;2022-09-09T16:41:10;21.00;99.90
25914;DHT22;13718;50.922;5.346;2022-09-09T16:43:36;21.10;99.90
25914;DHT22;13718;50.922;5.346;2022-09-09T16:46:18;21.00;99.90
25914;DHT22;13718;50.922;5.346;2022-09-09T16:48:46;20.70;99.90
25914;DHT22;13718;50.922;5.346;2022-09-09T16:51:14;20.60;99.90
25914;DHT22;13718;50.922;5.346;2022-09-09T16:53:41;20.60;99.90
25914;DHT22;13718;50.922;5.346;2022-09-09T16:56:20;20.60;99.90
25914;DHT22;13718;50.922;5.346;2022-09-09T16:58:55;20.70;99.90
25914;DHT22;13718;50.922;5.346;2022-09-09T17:01:22;20.70;99.90
25914;DHT22;13718;50.922;5.346;2022-09-09T17:03:52;20.60;99.90
25914;DHT22;13718;50.922;5.346;2022-09-09T17:06:18;20.60;99.90
25914;DHT22;13718;50.922;5.346;2022-09-09T17:08:44;20.50;99.90
25914;DHT22;13718;50.922;5.346;2022-09-09T17:11:15;20.50;99.90
25914;DHT22;13718;50.922;5.346;2022-09-09T17:13:46;20.30;99.90
25914;DHT22;13718;50.922;5.346;2022-09-09T17:16:15;20.30;99.90
25914;DHT22;13718;50.922;5.346;2022-09-09T17:18:42;20.20;99.90
25914;DHT22;13718;50.922;5.346;2022-09-09T17:21:09;20.10;99.90
25914;DHT22;13718;50.922;5.346;2022-09-09T17:23:37;20.00;99.90
25914;DHT22;13718;50.922;5.346;2022-09-09T17:26:05;20.40;99.90
25914;DHT22;13718;50.922;5.346;2022-09-09T17:28:32;20.50;99.90
25914;DHT22;13718;50.922;5.346;2022-09-09T17:30:58;20.40;99.90
25914;DHT22;13718;50.922;5.346;2022-09-09T17:33:27;20.50;99.90
25914;DHT22;13718;50.922;5.346;2022-09-09T17:35:57;20.50;99.90
25914;DHT22;13718;50.922;5.346;2022-09-09T17:38:24;20.30;99.90
25914;DHT22;13718;50.922;5.346;2022-09-09T17:41:00;20.30;99.90
25914;DHT22;13718;50.922;5.346;2022-09-09T17:43:25;20.20;99.90
25914;DHT22;13718;50.922;5.346;2022-09-09T17:45:51;20.40;99.90
25914;DHT22;13718;50.922;5.346;2022-09-09T17:48:17;20.40;99.90
25914;DHT22;13718;50.922;5.346;2022-09-09T17:50:42;20.40;99.90
25914;DHT22;13718;50.922;5.346;2022-09-09T17:53:08;20.40;99.90
25914;DHT22;13718;50.922;5.346;2022-09-09T17:55:33;20.20;99.90
25914;DHT22;13718;50.922;5.346;2022-09-09T17:57:59;20.00;99.90
25914;DHT22;13718;50.922;5.346;2022-09-09T18:00:25;20.00;99.90